sensor_id;sensor_type;location;lat;lon;timestamp;pressure;altitude;pressure_sealevel;temperature
70668;BMP280;58242;51.250;-1.118;2022-11-20T00:00:00;99805.28;;;12.75
70668;BMP280;58242;51.250;-1.118;2022-11-20T00:02:26;99811.44;;;12.76
70668;BMP280;58242;51.250;-1.118;2022-11-20T00:04:51;99806.88;;;12.76
70668;BMP280;58242;51.250;-1.118;2022-11-20T00:07:16;99809.97;;;12.78
70668;BMP280;58242;51.250;-1.118;2022-11-20T00:09:42;99806.97;;;12.80
70668;BMP280;58242;51.250;-1.118;2022-11-20T00:12:07;99810.84;;;12.82
70668;BMP280;58242;51.250;-1.118;2022-11-20T00:14:32;99805.94;;;12.84
70668;BMP280;58242;51.250;-1.118;2022-11-20T00:16:58;99799.09;;;12.86
70668;BMP280;58242;51.250;-1.118;2022-11-20T00:19:23;99800.31;;;12.89
70668;BMP280;58242;51.250;-1.118;2022-11-20T00:21:48;99793.13;;;12.93
70668;BMP280;58242;51.250;-1.118;2022-11-20T00:24:16;99789.78;;;12.96
70668;BMP280;58242;51.250;-1.118;2022-11-20T00:26:42;99786.38;;;12.99
70668;BMP280;58242;51.250;-1.118;2022-11-20T00:29:09;99778.75;;;13.00
70668;BMP280;58242;51.250;-1.118;2022-11-20T00:31:35;99785.00;;;13.04
70668;BMP280;58242;51.250;-1.118;2022-11-20T00:34:00;99779.72;;;13.08
70668;BMP280;58242;51.250;-1.118;2022-11-20T00:36:27;99777.91;;;13.12
70668;BMP280;58242;51.250;-1.118;2022-11-20T00:38:57;99775.75;;;13.17
70668;BMP280;58242;51.250;-1.118;2022-11-20T00:41:23;99768.66;;;13.24
70668;BMP280;58242;51.250;-1.118;2022-11-20T00:43:51;99767.63;;;13.29
70668;BMP280;58242;51.250;-1.118;2022-11-20T00:46:19;99767.69;;;13.32
70668;BMP280;58242;51.250;-1.118;2022-11-20T00:48:44;99768.97;;;13.38
70668;BMP280;58242;51.250;-1.118;2022-11-20T00:51:15;99768.72;;;13.43
70668;BMP280;58242;51.250;-1.118;2022-11-20T00:53:41;99757.28;;;13.46
70668;BMP280;58242;51.250;-1.118;2022-11-20T00:56:10;99758.13;;;13.50
70668;BMP280;58242;51.250;-1.118;2022-11-20T00:58:37;99755.53;;;13.53
70668;BMP280;58242;51.250;-1.118;2022-11-20T01:01:06;99751.78;;;13.57
70668;BMP280;58242;51.250;-1.118;2022-11-20T01:03:33;99751.13;;;13.60
70668;BMP280;58242;51.250;-1.118;2022-11-20T01:06:09;99759.66;;;13.66
70668;BMP280;58242;51.250;-1.118;2022-11-20T01:08:35;99764.34;;;13.68
70668;BMP280;58242;51.250;-1.118;2022-11-20T01:11:02;99756.00;;;13.73
70668;BMP280;58242;51.250;-1.118;2022-11-20T01:13:29;99734.97;;;13.75
70668;BMP280;58242;51.250;-1.118;2022-11-20T01:16:25;99723.06;;;13.76
70668;BMP280;58242;51.250;-1.118;2022-11-20T01:18:53;99727.78;;;13.79
70668;BMP280;58242;51.250;-1.118;2022-11-20T01:21:24;99729.78;;;13.82
70668;BMP280;58242;51.250;-1.118;2022-11-20T01:23:50;99718.66;;;13.84
70668;BMP280;58242;51.250;-1.118;2022-11-20T01:26:17;99719.03;;;13.82
70668;BMP280;58242;51.250;-1.118;2022-11-20T01:28:43;99710.97;;;13.82
70668;BMP280;58242;51.250;-1.118;2022-11-20T01:31:21;99714.50;;;13.86
70668;BMP280;58242;51.250;-1.118;2022-11-20T01:33:49;99709.53;;;13.88
70668;BMP280;58242;51.250;-1.118;2022-11-20T01:36:17;99709.28;;;13.93
70668;BMP280;58242;51.250;-1.118;2022-11-20T01:38:42;99707.78;;;13.95
70668;BMP280;58242;51.250;-1.118;2022-11-20T01:41:09;99692.88;;;13.98
70668;BMP280;58242;51.250;-1.118;2022-11-20T01:43:35;99694.84;;;14.01
70668;BMP280;58242;51.250;-1.118;2022-11-20T01:46:17;99690.66;;;14.03
70668;BMP280;58242;51.250;-1.118;2022-11-20T01:51:28;99687.72;;;14.08
70668;BMP280;58242;51.250;-1.118;2022-11-20T01:53:55;99677.38;;;14.10
70668;BMP280;58242;51.250;-1.118;2022-11-20T01:56:23;99675.53;;;14.14
70668;BMP280;58242;51.250;-1.118;2022-11-20T01:58:54;99686.00;;;14.19
70668;BMP280;58242;51.250;-1.118;2022-11-20T02:01:21;99680.28;;;14.20
70668;BMP280;58242;51.250;-1.118;2022-11-20T02:03:47;99678.78;;;14.22
70668;BMP280;58242;51.250;-1.118;2022-11-20T02:06:28;99673.47;;;14.26
70668;BMP280;58242;51.250;-1.118;2022-11-20T02:08:54;99671.22;;;14.28
70668;BMP280;58242;51.250;-1.118;2022-11-20T02:11:20;99677.00;;;14.30
70668;BMP280;58242;51.250;-1.118;2022-11-20T02:13:46;99677.06;;;14.33
70668;BMP280;58242;51.250;-1.118;2022-11-20T02:18:40;99663.28;;;14.35
70668;BMP280;58242;51.250;-1.118;2022-11-20T02:24:14;99652.94;;;14.37
70668;BMP280;58242;51.250;-1.118;2022-11-20T02:29:08;99644.06;;;14.36
70668;BMP280;58242;51.250;-1.118;2022-11-20T02:31:38;99639.47;;;14.37
70668;BMP280;58242;51.250;-1.118;2022-11-20T02:34:05;99636.44;;;14.38
70668;BMP280;58242;51.250;-1.118;2022-11-20T02:36:32;99624.19;;;14.40
70668;BMP280;58242;51.250;-1.118;2022-11-20T02:38:57;99624.19;;;14.40
70668;BMP280;58242;51.250;-1.118;2022-11-20T02:41:33;99619.59;;;14.41
70668;BMP280;58242;51.250;-1.118;2022-11-20T02:43:59;99623.06;;;14.41
70668;BMP280;58242;51.250;-1.118;2022-11-20T02:46:25;99615.00;;;14.41
70668;BMP280;58242;51.250;-1.118;2022-11-20T02:48:50;99616.56;;;14.42
70668;BMP280;58242;51.250;-1.118;2022-11-20T02:51:15;99601.19;;;14.43
70668;BMP280;58242;51.250;-1.118;2022-11-20T02:53:41;99601.97;;;14.43
70668;BMP280;58242;51.250;-1.118;2022-11-20T02:56:06;99597.34;;;14.44
70668;BMP280;58242;51.250;-1.118;2022-11-20T02:58:32;99586.59;;;14.44
70668;BMP280;58242;51.250;-1.118;2022-11-20T03:00:57;99586.59;;;14.44
70668;BMP280;58242;51.250;-1.118;2022-11-20T03:03:22;99579.75;;;14.46
70668;BMP280;58242;51.250;-1.118;2022-11-20T03:05:48;99569.00;;;14.46
70668;BMP280;58242;51.250;-1.118;2022-11-20T03:08:13;99567.81;;;14.47
70668;BMP280;58242;51.250;-1.118;2022-11-20T03:10:38;99574.00;;;14.48
70668;BMP280;58242;51.250;-1.118;2022-11-20T03:13:04;99567.47;;;14.49
70668;BMP280;58242;51.250;-1.118;2022-11-20T03:15:29;99561.75;;;14.50
70668;BMP280;58242;51.250;-1.118;2022-11-20T03:17:55;99564.84;;;14.52
70668;BMP280;58242;51.250;-1.118;2022-11-20T03:20:21;99553.75;;;14.54
70668;BMP280;58242;51.250;-1.118;2022-11-20T03:22:46;99553.75;;;14.54
70668;BMP280;58242;51.250;-1.118;2022-11-20T03:25:12;99555.31;;;14.54
70668;BMP280;58242;51.250;-1.118;2022-11-20T03:27:37;99549.13;;;14.54
70668;BMP280;58242;51.250;-1.118;2022-11-20T03:30:03;99545.28;;;14.55
70668;BMP280;58242;51.250;-1.118;2022-11-20T03:32:28;99526.47;;;14.55
70668;BMP280;58242;51.250;-1.118;2022-11-20T03:34:54;99518.41;;;14.55
70668;BMP280;58242;51.250;-1.118;2022-11-20T03:37:19;99519.97;;;14.56
70668;BMP280;58242;51.250;-1.118;2022-11-20T03:39:44;99508.41;;;14.55
70668;BMP280;58242;51.250;-1.118;2022-11-20T03:42:10;99506.09;;;14.54
70668;BMP280;58242;51.250;-1.118;2022-11-20T03:44:53;99501.84;;;14.53
70668;BMP280;58242;51.250;-1.118;2022-11-20T03:47:18;99494.91;;;14.52
70668;BMP280;58242;51.250;-1.118;2022-11-20T03:49:44;99484.94;;;14.53
70668;BMP280;58242;51.250;-1.118;2022-11-20T03:52:09;99483.81;;;14.54
70668;BMP280;58242;51.250;-1.118;2022-11-20T03:54:34;99476.88;;;14.53
70668;BMP280;58242;51.250;-1.118;2022-11-20T03:57:00;99476.09;;;14.52
70668;BMP280;58242;51.250;-1.118;2022-11-20T03:59:25;99468.81;;;14.53
70668;BMP280;58242;51.250;-1.118;2022-11-20T04:01:50;99471.50;;;14.53
70668;BMP280;58242;51.250;-1.118;2022-11-20T04:04:15;99465.78;;;14.54
70668;BMP280;58242;51.250;-1.118;2022-11-20T04:06:41;99459.22;;;14.55
70668;BMP280;58242;51.250;-1.118;2022-11-20T04:09:06;99464.59;;;14.55
70668;BMP280;58242;51.250;-1.118;2022-11-20T04:11:34;99465.03;;;14.57
70668;BMP280;58242;51.250;-1.118;2022-11-20T04:14:01;99455.06;;;14.57
70668;BMP280;58242;51.250;-1.118;2022-11-20T04:16:30;99452.75;;;14.59
70668;BMP280;58242;51.250;-1.118;2022-11-20T04:18:58;99456.25;;;14.60
70668;BMP280;58242;51.250;-1.118;2022-11-20T04:21:25;99455.09;;;14.61
70668;BMP280;58242;51.250;-1.118;2022-11-20T04:23:51;99455.50;;;14.63
70668;BMP280;58242;51.250;-1.118;2022-11-20T04:26:21;99452.84;;;14.66
70668;BMP280;58242;51.250;-1.118;2022-11-20T04:28:47;99444.78;;;14.66
70668;BMP280;58242;51.250;-1.118;2022-11-20T04:31:14;99445.22;;;14.68
70668;BMP280;58242;51.250;-1.118;2022-11-20T04:33:40;99439.88;;;14.71
70668;BMP280;58242;51.250;-1.118;2022-11-20T04:36:09;99438.38;;;14.74
70668;BMP280;58242;51.250;-1.118;2022-11-20T04:38:35;99444.19;;;14.76
70668;BMP280;58242;51.250;-1.118;2022-11-20T04:41:03;99441.53;;;14.79
70668;BMP280;58242;51.250;-1.118;2022-11-20T04:43:29;99444.63;;;14.81
70668;BMP280;58242;51.250;-1.118;2022-11-20T04:45:56;99437.38;;;14.85
70668;BMP280;58242;51.250;-1.118;2022-11-20T04:48:22;99428.16;;;14.86
70668;BMP280;58242;51.250;-1.118;2022-11-20T04:50:48;99422.03;;;14.89
70668;BMP280;58242;51.250;-1.118;2022-11-20T04:53:13;99423.28;;;14.91
70668;BMP280;58242;51.250;-1.118;2022-11-20T04:55:39;99414.44;;;14.91
70668;BMP280;58242;51.250;-1.118;2022-11-20T04:58:04;99412.13;;;14.93
70668;BMP280;58242;51.250;-1.118;2022-11-20T05:00:30;99401.38;;;14.93
70668;BMP280;58242;51.250;-1.118;2022-11-20T05:02:55;99400.22;;;14.94
70668;BMP280;58242;51.250;-1.118;2022-11-20T05:05:20;99392.94;;;14.94
70668;BMP280;58242;51.250;-1.118;2022-11-20T05:07:46;99388.31;;;14.95
70668;BMP280;58242;51.250;-1.118;2022-11-20T05:10:11;99384.50;;;14.96
70668;BMP280;58242;51.250;-1.118;2022-11-20T05:12:36;99381.44;;;14.97
70668;BMP280;58242;51.250;-1.118;2022-11-20T05:15:01;99374.16;;;15.01
70668;BMP280;58242;51.250;-1.118;2022-11-20T05:17:27;99372.25;;;15.02
70668;BMP280;58242;51.250;-1.118;2022-11-20T05:19:52;99361.53;;;15.05
70668;BMP280;58242;51.250;-1.118;2022-11-20T05:22:17;99356.19;;;15.08
70668;BMP280;58242;51.250;-1.118;2022-11-20T05:24:43;99362.38;;;15.12
70668;BMP280;58242;51.250;-1.118;2022-11-20T05:27:08;99357.41;;;15.14
70668;BMP280;58242;51.250;-1.118;2022-11-20T05:29:34;99350.13;;;15.15
70668;BMP280;58242;51.250;-1.118;2022-11-20T05:31:59;99344.34;;;15.16
70668;BMP280;58242;51.250;-1.118;2022-11-20T05:34:25;99341.69;;;15.20
70668;BMP280;58242;51.250;-1.118;2022-11-20T05:36:50;99339.81;;;15.23
70668;BMP280;58242;51.250;-1.118;2022-11-20T05:39:15;99337.88;;;15.24
70668;BMP280;58242;51.250;-1.118;2022-11-20T05:41:41;99332.94;;;15.26
70668;BMP280;58242;51.250;-1.118;2022-11-20T05:44:06;99332.53;;;15.27
70668;BMP280;58242;51.250;-1.118;2022-11-20T05:46:31;99342.16;;;15.28
70668;BMP280;58242;51.250;-1.118;2022-11-20T05:48:57;99375.25;;;15.29
70668;BMP280;58242;51.250;-1.118;2022-11-20T05:51:23;99397.16;;;15.27
70668;BMP280;58242;51.250;-1.118;2022-11-20T05:53:49;99403.69;;;15.26
70668;BMP280;58242;51.250;-1.118;2022-11-20T05:56:19;99361.69;;;15.19
70668;BMP280;58242;51.250;-1.118;2022-11-20T05:58:45;99379.66;;;15.11
70668;BMP280;58242;51.250;-1.118;2022-11-20T06:03:37;99365.72;;;14.99
70668;BMP280;58242;51.250;-1.118;2022-11-20T06:06:04;99368.34;;;14.96
70668;BMP280;58242;51.250;-1.118;2022-11-20T06:08:30;99362.94;;;14.92
70668;BMP280;58242;51.250;-1.118;2022-11-20T06:10:56;99374.06;;;14.91
70668;BMP280;58242;51.250;-1.118;2022-11-20T06:13:22;99380.56;;;14.90
70668;BMP280;58242;51.250;-1.118;2022-11-20T06:15:51;99385.19;;;14.89
70668;BMP280;58242;51.250;-1.118;2022-11-20T06:18:17;99388.19;;;14.85
70668;BMP280;58242;51.250;-1.118;2022-11-20T06:20:42;99384.28;;;14.82
70668;BMP280;58242;51.250;-1.118;2022-11-20T06:23:07;99392.75;;;14.81
70668;BMP280;58242;51.250;-1.118;2022-11-20T06:25:33;99390.41;;;14.79
70668;BMP280;58242;51.250;-1.118;2022-11-20T06:27:58;99390.38;;;14.76
70668;BMP280;58242;51.250;-1.118;2022-11-20T06:30:23;99389.94;;;14.74
70668;BMP280;58242;51.250;-1.118;2022-11-20T06:32:48;99399.19;;;14.73
70668;BMP280;58242;51.250;-1.118;2022-11-20T06:35:14;99394.88;;;14.69
70668;BMP280;58242;51.250;-1.118;2022-11-20T06:37:39;99394.84;;;14.65
70668;BMP280;58242;51.250;-1.118;2022-11-20T06:40:05;99390.16;;;14.62
70668;BMP280;58242;51.250;-1.118;2022-11-20T06:42:30;99384.00;;;14.58
70668;BMP280;58242;51.250;-1.118;2022-11-20T06:44:57;99382.00;;;14.55
70668;BMP280;58242;51.250;-1.118;2022-11-20T06:47:22;99383.09;;;14.51
70668;BMP280;58242;51.250;-1.118;2022-11-20T06:49:47;99390.72;;;14.46
70668;BMP280;58242;51.250;-1.118;2022-11-20T06:52:13;99389.84;;;14.38
70668;BMP280;58242;51.250;-1.118;2022-11-20T06:54:38;99396.66;;;14.33
70668;BMP280;58242;51.250;-1.118;2022-11-20T06:57:03;99394.28;;;14.24
70668;BMP280;58242;51.250;-1.118;2022-11-20T06:59:28;99397.59;;;14.18
70668;BMP280;58242;51.250;-1.118;2022-11-20T07:01:54;99396.72;;;14.11
70668;BMP280;58242;51.250;-1.118;2022-11-20T07:04:19;99404.34;;;14.05
70668;BMP280;58242;51.250;-1.118;2022-11-20T07:06:44;99402.28;;;13.99
70668;BMP280;58242;51.250;-1.118;2022-11-20T07:09:10;99402.63;;;13.94
70668;BMP280;58242;51.250;-1.118;2022-11-20T07:11:35;99401.72;;;13.87
70668;BMP280;58242;51.250;-1.118;2022-11-20T07:14:00;99404.28;;;13.80
70668;BMP280;58242;51.250;-1.118;2022-11-20T07:16:25;99412.19;;;13.73
70668;BMP280;58242;51.250;-1.118;2022-11-20T07:18:51;99410.19;;;13.67
70668;BMP280;58242;51.250;-1.118;2022-11-20T07:21:16;99418.88;;;13.61
70668;BMP280;58242;51.250;-1.118;2022-11-20T07:23:42;99414.94;;;13.55
70668;BMP280;58242;51.250;-1.118;2022-11-20T07:26:09;99425.97;;;13.50
70668;BMP280;58242;51.250;-1.118;2022-11-20T07:28:35;99428.97;;;13.45
70668;BMP280;58242;51.250;-1.118;2022-11-20T07:31:00;99425.00;;;13.39
70668;BMP280;58242;51.250;-1.118;2022-11-20T07:33:26;99424.16;;;13.35
70668;BMP280;58242;51.250;-1.118;2022-11-20T07:35:51;99440.56;;;13.31
70668;BMP280;58242;51.250;-1.118;2022-11-20T07:38:16;99440.50;;;13.27
70668;BMP280;58242;51.250;-1.118;2022-11-20T07:40:42;99440.78;;;13.22
70668;BMP280;58242;51.250;-1.118;2022-11-20T07:43:07;99447.22;;;13.18
70668;BMP280;58242;51.250;-1.118;2022-11-20T07:45:33;99443.31;;;13.16
70668;BMP280;58242;51.250;-1.118;2022-11-20T07:47:58;99454.44;;;13.14
70668;BMP280;58242;51.250;-1.118;2022-11-20T07:50:23;99459.72;;;13.11
70668;BMP280;58242;51.250;-1.118;2022-11-20T07:52:49;99460.06;;;13.09
70668;BMP280;58242;51.250;-1.118;2022-11-20T07:55:15;99459.66;;;13.07
70668;BMP280;58242;51.250;-1.118;2022-11-20T07:57:40;99466.47;;;13.05
70668;BMP280;58242;51.250;-1.118;2022-11-20T08:00:07;99476.44;;;13.04
70668;BMP280;58242;51.250;-1.118;2022-11-20T08:02:40;99480.69;;;13.05
70668;BMP280;58242;51.250;-1.118;2022-11-20T08:05:06;99481.81;;;13.04
70668;BMP280;58242;51.250;-1.118;2022-11-20T08:07:39;99475.31;;;13.05
70668;BMP280;58242;51.250;-1.118;2022-11-20T08:10:06;99475.31;;;13.05
70668;BMP280;58242;51.250;-1.118;2022-11-20T08:12:32;99476.09;;;13.06
70668;BMP280;58242;51.250;-1.118;2022-11-20T08:15:16;99487.16;;;13.04
70668;BMP280;58242;51.250;-1.118;2022-11-20T08:17:41;99482.97;;;13.03
70668;BMP280;58242;51.250;-1.118;2022-11-20T08:20:07;99487.53;;;13.03
70668;BMP280;58242;51.250;-1.118;2022-11-20T08:22:32;99484.47;;;13.04
70668;BMP280;58242;51.250;-1.118;2022-11-20T08:24:58;99487.16;;;13.04
70668;BMP280;58242;51.250;-1.118;2022-11-20T08:27:23;99493.38;;;13.08
70668;BMP280;58242;51.250;-1.118;2022-11-20T08:29:48;99487.34;;;13.11
70668;BMP280;58242;51.250;-1.118;2022-11-20T08:32:14;99484.34;;;13.16
70668;BMP280;58242;51.250;-1.118;2022-11-20T08:34:39;99484.47;;;13.23
70668;BMP280;58242;51.250;-1.118;2022-11-20T08:37:04;99483.09;;;13.29
70668;BMP280;58242;51.250;-1.118;2022-11-20T08:39:29;99484.06;;;13.39
70668;BMP280;58242;51.250;-1.118;2022-11-20T08:41:55;99501.16;;;13.50
70668;BMP280;58242;51.250;-1.118;2022-11-20T08:44:20;99502.50;;;13.59
70668;BMP280;58242;51.250;-1.118;2022-11-20T08:46:45;99489.91;;;13.63
70668;BMP280;58242;51.250;-1.118;2022-11-20T08:49:13;99494.56;;;13.66
70668;BMP280;58242;51.250;-1.118;2022-11-20T08:51:39;99496.91;;;13.68
70668;BMP280;58242;51.250;-1.118;2022-11-20T08:54:05;99518.38;;;13.68
70668;BMP280;58242;51.250;-1.118;2022-11-20T08:56:31;99512.59;;;13.66
70668;BMP280;58242;51.250;-1.118;2022-11-20T08:58:56;99529.75;;;13.61
70668;BMP280;58242;51.250;-1.118;2022-11-20T09:01:22;99527.84;;;13.62
70668;BMP280;58242;51.250;-1.118;2022-11-20T09:03:48;99542.84;;;13.63
70668;BMP280;58242;51.250;-1.118;2022-11-20T09:06:14;99542.91;;;13.66
70668;BMP280;58242;51.250;-1.118;2022-11-20T09:08:40;99541.13;;;13.73
70668;BMP280;58242;51.250;-1.118;2022-11-20T09:11:05;99527.91;;;13.84
70668;BMP280;58242;51.250;-1.118;2022-11-20T09:13:32;99523.09;;;13.92
70668;BMP280;58242;51.250;-1.118;2022-11-20T09:16:01;99524.44;;;14.02
70668;BMP280;58242;51.250;-1.118;2022-11-20T09:18:28;99522.25;;;14.10
70668;BMP280;58242;51.250;-1.118;2022-11-20T09:21:02;99530.88;;;14.19
70668;BMP280;58242;51.250;-1.118;2022-11-20T09:23:31;99531.72;;;14.23
70668;BMP280;58242;51.250;-1.118;2022-11-20T09:25:56;99541.69;;;14.22
70668;BMP280;58242;51.250;-1.118;2022-11-20T09:28:26;99539.94;;;14.33
70668;BMP280;58242;51.250;-1.118;2022-11-20T09:30:51;99532.75;;;14.40
70668;BMP280;58242;51.250;-1.118;2022-11-20T09:33:17;99548.31;;;14.50
70668;BMP280;58242;51.250;-1.118;2022-11-20T09:35:42;99535.38;;;14.59
70668;BMP280;58242;51.250;-1.118;2022-11-20T09:38:09;99540.50;;;14.67
70668;BMP280;58242;51.250;-1.118;2022-11-20T09:40:39;99532.91;;;14.72
70668;BMP280;58242;51.250;-1.118;2022-11-20T09:46:17;99531.00;;;14.73
70668;BMP280;58242;51.250;-1.118;2022-11-20T09:51:40;99543.28;;;15.24
70668;BMP280;58242;51.250;-1.118;2022-11-20T09:54:21;99534.13;;;15.61
70668;BMP280;58242;51.250;-1.118;2022-11-20T09:56:53;99540.16;;;15.83
70668;BMP280;58242;51.250;-1.118;2022-11-20T10:01:58;99531.16;;;16.01
70668;BMP280;58242;51.250;-1.118;2022-11-20T10:04:24;99538.19;;;16.12
70668;BMP280;58242;51.250;-1.118;2022-11-20T10:07:03;99544.72;;;16.54
70668;BMP280;58242;51.250;-1.118;2022-11-20T10:09:37;99545.16;;;17.15
70668;BMP280;58242;51.250;-1.118;2022-11-20T10:14:55;99547.81;;;17.81
70668;BMP280;58242;51.250;-1.118;2022-11-20T10:26:06;99551.84;;;17.38
70668;BMP280;58242;51.250;-1.118;2022-11-20T10:33:51;99558.13;;;16.89
70668;BMP280;58242;51.250;-1.118;2022-11-20T10:36:30;99559.56;;;16.77
70668;BMP280;58242;51.250;-1.118;2022-11-20T10:39:03;99561.38;;;16.66
70668;BMP280;58242;51.250;-1.118;2022-11-20T10:41:34;99549.72;;;16.55
70668;BMP280;58242;51.250;-1.118;2022-11-20T10:44:05;99550.06;;;16.47
70668;BMP280;58242;51.250;-1.118;2022-11-20T10:46:49;99553.41;;;16.34
70668;BMP280;58242;51.250;-1.118;2022-11-20T10:49:16;99545.22;;;16.24
70668;BMP280;58242;51.250;-1.118;2022-11-20T10:57:31;99552.91;;;15.86
70668;BMP280;58242;51.250;-1.118;2022-11-20T11:00:08;99554.34;;;15.77
70668;BMP280;58242;51.250;-1.118;2022-11-20T11:02:35;99550.44;;;15.71
70668;BMP280;58242;51.250;-1.118;2022-11-20T11:05:22;99546.47;;;15.62
70668;BMP280;58242;51.250;-1.118;2022-11-20T11:07:54;99546.06;;;15.60
70668;BMP280;58242;51.250;-1.118;2022-11-20T11:10:28;99542.94;;;15.58
70668;BMP280;58242;51.250;-1.118;2022-11-20T11:12:56;99536.00;;;15.57
70668;BMP280;58242;51.250;-1.118;2022-11-20T11:15:38;99537.19;;;15.59
70668;BMP280;58242;51.250;-1.118;2022-11-20T11:18:04;99541.06;;;15.62
70668;BMP280;58242;51.250;-1.118;2022-11-20T11:20:30;99549.19;;;15.65
70668;BMP280;58242;51.250;-1.118;2022-11-20T11:22:58;99539.63;;;15.68
70668;BMP280;58242;51.250;-1.118;2022-11-20T11:25:29;99536.19;;;15.71
70668;BMP280;58242;51.250;-1.118;2022-11-20T11:27:58;99547.72;;;15.71
70668;BMP280;58242;51.250;-1.118;2022-11-20T11:30:25;99554.16;;;15.60
70668;BMP280;58242;51.250;-1.118;2022-11-20T11:32:50;99549.16;;;15.62
70668;BMP280;58242;51.250;-1.118;2022-11-20T11:37:46;99554.97;;;15.64
70668;BMP280;58242;51.250;-1.118;2022-11-20T11:40:13;99552.66;;;15.66
70668;BMP280;58242;51.250;-1.118;2022-11-20T11:42:51;99550.75;;;15.66
70668;BMP280;58242;51.250;-1.118;2022-11-20T11:45:18;99548.84;;;15.67
70668;BMP280;58242;51.250;-1.118;2022-11-20T11:47:46;99556.56;;;15.72
70668;BMP280;58242;51.250;-1.118;2022-11-20T11:52:45;99553.97;;;15.78
70668;BMP280;58242;51.250;-1.118;2022-11-20T11:55:22;99552.91;;;15.86
70668;BMP280;58242;51.250;-1.118;2022-11-20T12:00:41;99546.47;;;15.94
70668;BMP280;58242;51.250;-1.118;2022-11-20T12:03:35;99534.19;;;16.00
70668;BMP280;58242;51.250;-1.118;2022-11-20T12:06:11;99540.44;;;16.07
70668;BMP280;58242;51.250;-1.118;2022-11-20T12:08:54;99533.13;;;16.08
70668;BMP280;58242;51.250;-1.118;2022-11-20T12:11:32;99539.69;;;16.10
70668;BMP280;58242;51.250;-1.118;2022-11-20T12:14:01;99536.63;;;16.11
70668;BMP280;58242;51.250;-1.118;2022-11-20T12:16:30;99547.88;;;16.17
70668;BMP280;58242;51.250;-1.118;2022-11-20T12:18:58;99557.94;;;16.23
70668;BMP280;58242;51.250;-1.118;2022-11-20T12:26:27;99540.94;;;16.61
70668;BMP280;58242;51.250;-1.118;2022-11-20T12:34:51;99523.84;;;16.96
70668;BMP280;58242;51.250;-1.118;2022-11-20T12:39:49;99518.44;;;16.96
70668;BMP280;58242;51.250;-1.118;2022-11-20T13:01:48;99534.47;;;17.32
70668;BMP280;58242;51.250;-1.118;2022-11-20T13:07:03;99527.59;;;17.51
70668;BMP280;58242;51.250;-1.118;2022-11-20T13:09:31;99540.75;;;17.56
70668;BMP280;58242;51.250;-1.118;2022-11-20T13:12:18;99531.47;;;17.57
70668;BMP280;58242;51.250;-1.118;2022-11-20T13:17:41;99512.53;;;17.50
70668;BMP280;58242;51.250;-1.118;2022-11-20T13:20:17;99510.97;;;17.49
70668;BMP280;58242;51.250;-1.118;2022-11-20T13:22:53;99503.66;;;17.46
70668;BMP280;58242;51.250;-1.118;2022-11-20T13:25:27;99504.78;;;17.42
70668;BMP280;58242;51.250;-1.118;2022-11-20T13:27:54;99502.84;;;17.36
70668;BMP280;58242;51.250;-1.118;2022-11-20T13:30:22;99498.97;;;17.33
70668;BMP280;58242;51.250;-1.118;2022-11-20T13:32:49;99475.41;;;17.30
70668;BMP280;58242;51.250;-1.118;2022-11-20T13:35:24;99458.81;;;17.25
70668;BMP280;58242;51.250;-1.118;2022-11-20T13:38:20;99447.22;;;17.21
70668;BMP280;58242;51.250;-1.118;2022-11-20T13:40:53;99442.16;;;17.16
70668;BMP280;58242;51.250;-1.118;2022-11-20T13:43:57;99453.38;;;17.18
70668;BMP280;58242;51.250;-1.118;2022-11-20T13:46:13;99468.81;;;17.21
70668;BMP280;58242;51.250;-1.118;2022-11-20T13:48:42;99468.47;;;17.29
70668;BMP280;58242;51.250;-1.118;2022-11-20T14:01:30;99474.25;;;17.28
70668;BMP280;58242;51.250;-1.118;2022-11-20T14:03:56;99486.94;;;17.21
70668;BMP280;58242;51.250;-1.118;2022-11-20T14:06:30;99496.19;;;17.16
70668;BMP280;58242;51.250;-1.118;2022-11-20T14:08:57;99498.09;;;17.12
70668;BMP280;58242;51.250;-1.118;2022-11-20T14:11:28;99495.75;;;17.08
70668;BMP280;58242;51.250;-1.118;2022-11-20T14:14:01;99502.66;;;17.02
70668;BMP280;58242;51.250;-1.118;2022-11-20T14:16:33;99501.09;;;16.97
70668;BMP280;58242;51.250;-1.118;2022-11-20T14:21:52;99503.72;;;16.87
70668;BMP280;58242;51.250;-1.118;2022-11-20T14:24:20;99495.59;;;16.84
70668;BMP280;58242;51.250;-1.118;2022-11-20T14:26:46;99484.78;;;16.80
70668;BMP280;58242;51.250;-1.118;2022-11-20T14:29:26;99484.75;;;16.77
70668;BMP280;58242;51.250;-1.118;2022-11-20T14:31:53;99480.09;;;16.74
70668;BMP280;58242;51.250;-1.118;2022-11-20T14:34:24;99479.31;;;16.74
70668;BMP280;58242;51.250;-1.118;2022-11-20T14:36:55;99489.38;;;16.73
70668;BMP280;58242;51.250;-1.118;2022-11-20T14:39:21;99485.47;;;16.71
70668;BMP280;58242;51.250;-1.118;2022-11-20T14:41:51;99483.16;;;16.69
70668;BMP280;58242;51.250;-1.118;2022-11-20T14:44:17;99501.66;;;16.67
70668;BMP280;58242;51.250;-1.118;2022-11-20T14:46:44;99493.91;;;16.66
70668;BMP280;58242;51.250;-1.118;2022-11-20T14:49:11;99506.19;;;16.53
70668;BMP280;58242;51.250;-1.118;2022-11-20T14:51:39;99484.09;;;16.38
70668;BMP280;58242;51.250;-1.118;2022-11-20T14:54:15;99487.41;;;16.21
70668;BMP280;58242;51.250;-1.118;2022-11-20T14:56:41;99487.25;;;16.04
70668;BMP280;58242;51.250;-1.118;2022-11-20T14:59:08;99488.63;;;15.88
70668;BMP280;58242;51.250;-1.118;2022-11-20T15:01:33;99492.31;;;15.74
70668;BMP280;58242;51.250;-1.118;2022-11-20T15:04:19;99485.22;;;15.59
70668;BMP280;58242;51.250;-1.118;2022-11-20T15:06:57;99479.34;;;15.50
70668;BMP280;58242;51.250;-1.118;2022-11-20T15:09:22;99481.16;;;15.40
70668;BMP280;58242;51.250;-1.118;2022-11-20T15:11:57;99482.22;;;15.32
70668;BMP280;58242;51.250;-1.118;2022-11-20T15:14:24;99475.19;;;15.24
70668;BMP280;58242;51.250;-1.118;2022-11-20T15:16:50;99482.41;;;15.17
70668;BMP280;58242;51.250;-1.118;2022-11-20T15:19:21;99480.47;;;15.14
70668;BMP280;58242;51.250;-1.118;2022-11-20T15:21:46;99481.94;;;15.11
70668;BMP280;58242;51.250;-1.118;2022-11-20T15:24:12;99475.44;;;15.12
70668;BMP280;58242;51.250;-1.118;2022-11-20T15:26:38;99478.56;;;15.14
70668;BMP280;58242;51.250;-1.118;2022-11-20T15:29:10;99475.94;;;15.21
70668;BMP280;58242;51.250;-1.118;2022-11-20T15:31:36;99474.41;;;15.23
70668;BMP280;58242;51.250;-1.118;2022-11-20T15:34:02;99470.19;;;15.23
70668;BMP280;58242;51.250;-1.118;2022-11-20T15:36:28;99468.91;;;15.13
70668;BMP280;58242;51.250;-1.118;2022-11-20T15:38:53;99480.34;;;15.04
70668;BMP280;58242;51.250;-1.118;2022-11-20T15:41:18;99482.13;;;14.96
70668;BMP280;58242;51.250;-1.118;2022-11-20T15:43:44;99489.31;;;14.89